createdAt,value
2019-04-21T00:00:54.201Z,10.07
2019-04-21T00:03:35.643Z,10.10
2019-04-21T00:06:23.698Z,10.30
2019-04-21T00:08:57.942Z,10.33
2019-04-21T00:11:34.317Z,10.13
2019-04-21T00:14:02.161Z,9.77
2019-04-21T00:16:34.733Z,10.63
2019-04-21T00:19:45.979Z,9.73
2019-04-21T00:22:36.734Z,10.67
2019-04-21T00:25:11.830Z,9.90
2019-04-21T00:27:50.193Z,10.47
2019-04-21T00:30:30.731Z,10.80
2019-04-21T00:33:13.868Z,10.40
2019-04-21T00:35:54.962Z,10.57
2019-04-21T00:39:03.046Z,10.83
2019-04-21T00:41:32.150Z,10.20
2019-04-21T00:44:18.015Z,10.57
2019-04-21T00:46:51.614Z,11.03
2019-04-21T00:49:27.124Z,10.53
2019-04-21T00:52:46.257Z,10.73
2019-04-21T00:57:58.486Z,11.67
2019-04-21T01:00:33.971Z,11.80
2019-04-21T01:03:26.388Z,11.07
2019-04-21T01:05:58.958Z,10.97
2019-04-21T01:08:46.823Z,11.63
2019-04-21T01:11:21.500Z,11.67
2019-04-21T01:13:59.625Z,11.37
2019-04-21T01:16:33.169Z,11.43
2019-04-21T01:19:05.086Z,11.50
2019-04-21T01:21:17.575Z,11.47
2019-04-21T01:23:50.654Z,11.77
2019-04-21T01:26:32.510Z,12.20
2019-04-21T01:29:38.259Z,12.37
2019-04-21T01:32:13.240Z,12.03
2019-04-21T01:34:45.500Z,12.53
2019-04-21T01:37:42.411Z,12.53
2019-04-21T01:40:14.281Z,12.40
2019-04-21T01:42:38.855Z,13.23
2019-04-21T01:45:09.350Z,12.90
2019-04-21T01:47:40.572Z,13.10
2019-04-21T01:50:08.427Z,12.60
2019-04-21T01:52:58.942Z,13.30
2019-04-21T01:56:04.905Z,13.00
2019-04-21T01:58:28.910Z,13.20
2019-04-21T02:01:05.679Z,13.03
2019-04-21T02:03:54.476Z,13.83
2019-04-21T02:06:19.099Z,14.10
2019-04-21T02:08:41.784Z,13.33
2019-04-21T02:11:18.853Z,14.47
2019-04-21T02:13:53.163Z,15.10
2019-04-21T02:16:18.222Z,15.13
2019-04-21T02:18:52.933Z,15.10
2019-04-21T02:21:19.068Z,16.43
2019-04-21T02:23:58.936Z,16.13
2019-04-21T02:26:29.957Z,15.73
2019-04-21T02:29:02.018Z,15.57
2019-04-21T02:31:36.215Z,15.47
2019-04-21T02:34:11.359Z,16.03
2019-04-21T02:37:13.636Z,16.57
2019-04-21T02:39:23.084Z,16.80
2019-04-21T02:44:32.744Z,16.47
2019-04-21T02:46:46.378Z,16.63
2019-04-21T02:52:13.832Z,16.33
2019-04-21T02:57:18.591Z,17.30
2019-04-21T03:00:00.450Z,17.37
2019-04-21T03:02:55.045Z,18.00
2019-04-21T03:05:51.175Z,17.63
2019-04-21T03:08:40.372Z,17.93
2019-04-21T03:11:02.499Z,17.63
2019-04-21T03:16:10.108Z,17.23
2019-04-21T03:21:07.500Z,18.23
2019-04-21T03:23:54.006Z,16.73
2019-04-21T03:28:39.065Z,16.97
2019-04-21T03:36:40.975Z,17.30
2019-04-21T03:38:45.362Z,17.27
2019-04-21T03:41:22.205Z,17.40
2019-04-21T03:44:08.057Z,17.70
2019-04-21T03:49:02.300Z,17.33
2019-04-21T03:54:00.582Z,17.00
2019-04-21T04:01:58.415Z,18.30
2019-04-21T04:04:49.185Z,18.10
2019-04-21T04:07:49.859Z,17.50
2019-04-21T04:15:20.543Z,18.57
2019-04-21T04:17:50.355Z,18.27
2019-04-21T04:23:11.661Z,18.23
2019-04-21T04:25:27.460Z,18.33
2019-04-21T04:30:43.667Z,19.47
2019-04-21T04:33:10.301Z,18.90
2019-04-21T04:35:49.429Z,19.70
2019-04-21T04:38:15.449Z,20.27
2019-04-21T04:41:11.663Z,20.33
2019-04-21T04:43:35.293Z,20.27
2019-04-21T04:51:39.951Z,21.67
2019-04-21T04:53:43.969Z,21.60
2019-04-21T04:56:16.385Z,20.50
2019-04-21T05:01:24.697Z,20.20
2019-04-21T05:03:57.049Z,20.37
2019-04-21T05:09:27.086Z,18.97
2019-04-21T05:17:03.892Z,20.77
2019-04-21T06:13:02.387Z,22.00
2019-04-21T06:15:34.939Z,21.27
2019-04-21T06:37:40.556Z,22.83
2019-04-21T06:40:10.443Z,23.73
2019-04-21T06:42:28.570Z,22.20
2019-04-21T06:45:07.229Z,23.13
2019-04-21T06:47:39.442Z,23.03
2019-04-21T06:50:00.422Z,22.43
2019-04-21T06:52:46.260Z,21.93
2019-04-21T06:55:10.244Z,22.00
2019-04-21T07:00:07.441Z,23.50
2019-04-21T07:05:08.930Z,21.67
2019-04-21T07:07:43.275Z,22.23
2019-04-21T07:12:42.909Z,20.83
2019-04-21T07:15:14.179Z,21.70
2019-04-21T07:17:45.649Z,22.40
2019-04-21T07:20:18.792Z,22.10
2019-04-21T07:22:47.808Z,22.70
2019-04-21T07:25:22.650Z,23.33
2019-04-21T07:27:56.686Z,22.87
2019-04-21T07:30:26.747Z,22.63
2019-04-21T07:32:56.532Z,23.00
2019-04-21T07:35:28.129Z,22.27
2019-04-21T07:37:53.499Z,22.50
2019-04-21T07:40:22.355Z,22.23
2019-04-21T07:42:52.597Z,22.33
2019-04-21T07:45:22.974Z,22.47
2019-04-21T07:48:01.924Z,22.53
2019-04-21T07:50:51.920Z,22.37
2019-04-21T07:53:27.694Z,21.97
2019-04-21T07:55:36.139Z,21.93
2019-04-21T07:58:26.522Z,22.83
2019-04-21T08:03:26.479Z,21.77
2019-04-21T08:06:02.142Z,21.87
2019-04-21T08:08:28.142Z,20.97
2019-04-21T08:10:59.739Z,21.73
2019-04-21T08:13:41.584Z,22.03
2019-04-21T08:16:04.730Z,22.07
2019-04-21T08:18:39.840Z,21.87
2019-04-21T08:21:09.074Z,21.67
2019-04-21T08:23:40.178Z,20.47
2019-04-21T08:26:07.997Z,21.00
2019-04-21T08:29:12.675Z,20.23
2019-04-21T08:31:46.933Z,20.97
2019-04-21T08:39:59.393Z,19.83
2019-04-21T08:42:25.598Z,21.03
2019-04-21T08:45:00.278Z,20.63
2019-04-21T08:47:55.238Z,20.43
2019-04-21T08:50:46.174Z,20.67
2019-04-21T08:53:13.761Z,20.77
2019-04-21T09:13:30.817Z,19.27
2019-04-21T09:15:59.576Z,19.37
2019-04-21T09:22:02.186Z,19.50
2019-04-21T09:24:35.141Z,18.23
2019-04-21T09:27:03.774Z,18.90
2019-04-21T09:29:28.710Z,18.37
2019-04-21T09:31:52.964Z,18.97
2019-04-21T09:34:24.977Z,18.27
2019-04-21T09:36:59.018Z,19.53
2019-04-21T09:39:30.037Z,18.70
2019-04-21T09:42:02.759Z,18.23
2019-04-21T09:44:38.607Z,20.33
2019-04-21T09:47:08.815Z,19.13
2019-04-21T09:49:40.143Z,19.47
2019-04-21T09:52:16.968Z,19.20
2019-04-21T10:00:30.654Z,18.97
2019-04-21T10:03:06.066Z,19.97
2019-04-21T10:05:33.861Z,18.00
2019-04-21T10:08:10.324Z,18.33
2019-04-21T10:11:31.124Z,19.43
2019-04-21T10:13:44.247Z,19.73
2019-04-21T10:16:36.387Z,18.80
2019-04-21T10:19:08.781Z,19.13
2019-04-21T10:21:54.195Z,18.80
2019-04-21T10:24:24.485Z,18.80
2019-04-21T10:26:55.195Z,19.10
2019-04-21T10:29:29.102Z,19.33
2019-04-21T10:31:57.265Z,19.50
2019-04-21T10:34:27.327Z,18.93
2019-04-21T10:36:57.007Z,18.67
2019-04-21T10:39:37.710Z,18.47
2019-04-21T10:42:48.384Z,17.37
2019-04-21T10:45:50.623Z,17.93
2019-04-21T10:48:31.656Z,17.73
2019-04-21T10:57:00.409Z,17.50
2019-04-21T11:27:14.899Z,15.03
2019-04-21T11:29:47.461Z,15.20
2019-04-21T11:32:22.889Z,15.33
2019-04-21T11:35:03.281Z,15.73
2019-04-21T11:37:37.874Z,16.03
2019-04-21T11:40:14.031Z,14.77
2019-04-21T11:43:17.798Z,15.40
2019-04-21T11:51:23.118Z,14.30
2019-04-21T11:54:26.632Z,14.77
2019-04-21T11:57:14.058Z,14.70
2019-04-21T11:59:44.089Z,14.37
2019-04-21T12:02:23.472Z,14.53
2019-04-21T12:04:54.109Z,14.50
2019-04-21T12:08:15.821Z,14.50
2019-04-21T12:10:59.742Z,14.93
2019-04-21T12:13:32.184Z,14.07
2019-04-21T12:16:33.008Z,16.13
2019-04-21T16:25:00.900Z,9.17
2019-04-21T16:27:47.639Z,10.27
2019-04-21T16:34:01.133Z,9.00
2019-04-21T16:36:36.301Z,8.90
2019-04-21T16:39:23.159Z,8.47
2019-04-21T16:42:25.509Z,8.30
2019-04-21T16:45:42.910Z,8.70
2019-04-21T16:48:15.176Z,8.53
2019-04-21T16:57:21.722Z,8.97
2019-04-21T17:03:28.356Z,8.80
2019-04-21T17:09:40.939Z,7.90
2019-04-21T17:27:13.147Z,8.00
2019-04-21T17:42:27.875Z,7.80
2019-04-21T18:48:40.092Z,8.53
2019-04-21T18:54:54.825Z,7.63
2019-04-21T18:58:15.815Z,8.03
2019-04-21T19:20:10.427Z,9.90
2019-04-21T19:36:19.431Z,15.83
2019-04-21T19:39:58.931Z,14.17
2019-04-21T19:43:03.406Z,12.10
2019-04-21T19:46:10.037Z,11.87
2019-04-21T19:55:14.222Z,12.40
2019-04-21T19:57:47.159Z,12.93
2019-04-21T20:00:22.443Z,13.47
2019-04-21T20:03:03.069Z,14.30
2019-04-21T20:05:41.827Z,12.47
2019-04-21T20:08:27.834Z,12.70
2019-04-21T20:11:43.103Z,13.17
2019-04-21T20:14:43.052Z,12.67
2019-04-21T20:17:11.469Z,12.30
2019-04-21T20:19:36.226Z,13.23
2019-04-21T20:22:11.408Z,13.70
2019-04-21T20:24:49.859Z,15.00
2019-04-21T20:27:29.583Z,14.63
2019-04-21T20:30:14.007Z,14.00
2019-04-21T20:33:19.811Z,13.97
2019-04-21T20:36:09.720Z,22.53
2019-04-21T20:38:31.182Z,14.70
2019-04-21T20:41:19.624Z,15.07
2019-04-21T20:44:00.491Z,15.60
2019-04-21T20:46:35.111Z,15.27
2019-04-21T20:49:34.603Z,21.27
2019-04-21T20:52:41.749Z,17.50
2019-04-21T20:55:15.585Z,16.97
2019-04-21T21:07:44.116Z,15.40
2019-04-21T21:10:38.611Z,14.50
2019-04-21T21:17:46.795Z,15.50
2019-04-21T21:20:14.338Z,14.87
2019-04-21T21:26:14.816Z,16.30
2019-04-21T21:32:52.445Z,16.73
2019-04-21T21:41:31.770Z,17.63
2019-04-21T21:44:58.547Z,18.47
2019-04-21T21:47:46.199Z,17.97
2019-04-21T21:53:28.431Z,18.67
2019-04-21T21:56:28.874Z,19.70
2019-04-21T21:59:42.208Z,20.33
2019-04-21T22:03:03.491Z,19.83
2019-04-21T22:06:17.469Z,20.70
2019-04-21T22:09:26.219Z,20.20
2019-04-21T22:18:59.895Z,21.10
2019-04-21T22:21:53.279Z,21.77
2019-04-21T22:24:46.984Z,21.77
2019-04-21T22:27:35.199Z,21.37
2019-04-21T22:30:39.256Z,23.10
2019-04-21T22:33:55.411Z,23.43
2019-04-21T22:36:38.091Z,21.43
2019-04-21T22:39:34.968Z,22.73
2019-04-21T22:42:21.403Z,22.73
2019-04-21T22:44:50.456Z,22.33
2019-04-21T22:47:31.965Z,23.70
2019-04-21T22:50:10.599Z,23.67
2019-04-21T22:53:17.883Z,23.37
2019-04-21T22:55:49.515Z,23.03
2019-04-21T22:58:53.013Z,23.00
2019-04-21T23:01:35.102Z,23.27
2019-04-21T23:04:07.180Z,23.13
2019-04-21T23:06:42.681Z,24.07
2019-04-21T23:09:37.103Z,23.47
2019-04-21T23:12:36.274Z,23.13
2019-04-21T23:15:34.495Z,22.93
2019-04-21T23:18:20.423Z,23.63
2019-04-21T23:21:06.194Z,24.37
2019-04-21T23:24:34.647Z,24.40
2019-04-21T23:26:57.196Z,23.37
2019-04-21T23:32:35.313Z,24.87
2019-04-21T23:35:21.790Z,25.03
2019-04-21T23:38:05.001Z,25.80
2019-04-21T23:40:48.754Z,25.33
2019-04-21T23:43:21.331Z,26.03
2019-04-21T23:45:55.048Z,26.83
2019-04-21T23:48:43.838Z,26.23
2019-04-21T23:51:17.181Z,26.97
2019-04-21T23:53:39.564Z,26.70
2019-04-21T23:56:23.200Z,27.40
2019-04-21T23:59:22.614Z,27.93
